Time;durP1;ratioP1;P1;durP2;ratioP2;P2;SDS_P1;SDS_P2;PMS_P1;PMS_P2;Temp;Humidity;BMP_temperature;BMP_pressure;BME280_temperature;BME280_humidity;BME280_pressure;Samples;Min_cycle;Max_cycle;Signal;HPM_P1;HPM_P2
2023/04/21 00:00:49;;;;;;;19.05;9.88;;;10.30;92.00;;;;;;5116702;28;20020;-75
2023/04/21 00:03:15;;;;;;;22.40;11.30;;;10.30;92.00;;;;;;5116688;28;20027;-75
2023/04/21 00:05:41;;;;;;;19.70;10.23;;;10.20;92.20;;;;;;5116762;28;20020;-75
2023/04/21 00:08:07;;;;;;;20.92;10.75;;;10.20;92.00;;;;;;5116527;28;20028;-75
2023/04/21 00:10:33;;;;;;;20.98;11.38;;;10.20;92.10;;;;;;5116507;28;20464;-75
2023/04/21 00:12:59;;;;;;;19.58;10.43;;;10.20;92.30;;;;;;5115511;28;20016;-75
2023/04/21 00:15:25;;;;;;;19.95;10.45;;;10.20;92.40;;;;;;5116421;28;20079;-75
2023/04/21 00:17:50;;;;;;;28.33;10.82;;;10.10;92.30;;;;;;5115498;28;20087;-75
2023/04/21 00:20:17;;;;;;;20.17;10.57;;;10.10;92.40;;;;;;5116326;28;20036;-75
2023/04/21 00:22:43;;;;;;;21.17;11.05;;;10.10;92.40;;;;;;5116290;28;20025;-75
2023/04/21 00:25:09;;;;;;;21.67;11.00;;;10.10;92.50;;;;;;5115271;28;20082;-75
2023/04/21 00:27:35;;;;;;;20.05;10.73;;;10.20;92.50;;;;;;5116174;28;20028;-75
2023/04/21 00:30:00;;;;;;;20.95;9.10;;;10.10;92.50;;;;;;5116138;28;20059;-75
2023/04/21 00:32:26;;;;;;;20.95;10.68;;;10.10;92.50;;;;;;5115239;28;20094;-75
2023/04/21 00:34:51;;;;;;;21.63;10.15;;;10.20;92.50;;;;;;5115940;28;20052;-75
2023/04/21 00:37:17;;;;;;;21.42;10.20;;;10.20;92.60;;;;;;5116045;28;20028;-75
2023/04/21 00:39:43;;;;;;;21.25;10.18;;;10.10;92.60;;;;;;5115913;28;20056;-75
2023/04/21 00:42:08;;;;;;;22.10;9.98;;;10.20;92.60;;;;;;5115971;28;20028;-75
2023/04/21 00:44:34;;;;;;;21.92;11.80;;;10.20;92.60;;;;;;5114905;28;20025;-75
2023/04/21 00:47:00;;;;;;;21.33;11.90;;;10.20;92.60;;;;;;5114918;28;20473;-74
2023/04/21 00:49:25;;;;;;;21.23;10.45;;;10.20;92.70;;;;;;5115775;28;20040;-75
2023/04/21 00:51:52;;;;;;;21.45;10.18;;;10.20;92.70;;;;;;5114869;28;20103;-75
2023/04/21 00:54:18;;;;;;;23.45;10.93;;;10.20;92.70;;;;;;5114621;28;20032;-75
2023/04/21 00:56:44;;;;;;;21.40;10.77;;;10.30;92.60;;;;;;5115493;28;20052;-75
2023/04/21 00:59:11;;;;;;;20.25;10.07;;;10.20;92.50;;;;;;5115568;28;20066;-75
2023/04/21 01:01:38;;;;;;;20.77;10.50;;;10.30;92.40;;;;;;5115575;28;20032;-75
2023/04/21 01:04:04;;;;;;;20.08;10.57;;;10.30;92.40;;;;;;5115479;28;20020;-75
2023/04/21 01:06:32;;;;;;;23.27;11.38;;;10.30;92.40;;;;;;5115451;28;20052;-75
2023/04/21 01:08:58;;;;;;;26.00;12.75;;;10.30;92.40;;;;;;5115422;28;20496;-75
2023/04/21 01:11:25;;;;;;;21.90;10.70;;;10.30;92.40;;;;;;5114536;28;20025;-75
2023/04/21 01:13:54;;;;;;;23.80;11.18;;;10.20;92.50;;;;;;5115341;28;20027;-75
2023/04/21 01:16:21;;;;;;;24.83;11.73;;;10.20;92.70;;;;;;5115312;28;20084;-75
2023/04/21 01:18:47;;;;;;;24.10;11.30;;;10.20;92.60;;;;;;5114223;28;20077;-75
2023/04/21 01:21:14;;;;;;;22.95;12.55;;;10.20;92.80;;;;;;5115158;28;20019;-75
2023/04/21 01:23:40;;;;;;;24.02;12.55;;;10.20;92.80;;;;;;5114259;28;20024;-75
2023/04/21 01:26:05;;;;;;;25.70;12.23;;;10.20;92.60;;;;;;5114973;28;20024;-75
2023/04/21 01:28:31;;;;;;;23.80;11.07;;;10.30;92.50;;;;;;5113984;28;20055;-75
2023/04/21 01:30:56;;;;;;;23.10;11.90;;;10.20;92.60;;;;;;5114950;28;20027;-75
2023/04/21 01:33:22;;;;;;;25.52;12.02;;;10.20;92.80;;;;;;5114863;28;20032;-75
2023/04/21 01:35:48;;;;;;;26.58;12.90;;;10.20;92.80;;;;;;5113196;28;20029;-75
2023/04/21 01:38:17;;;;;;;24.80;11.88;;;10.20;92.90;;;;;;5114886;28;20076;-75
2023/04/21 01:40:46;;;;;;;25.17;12.60;;;10.20;92.90;;;;;;5113812;28;20051;-75
2023/04/21 01:43:12;;;;;;;24.85;12.15;;;10.10;92.90;;;;;;5114778;28;20020;-75
2023/04/21 01:45:38;;;;;;;29.02;12.43;;;10.10;93.00;;;;;;5114666;28;20034;-75
2023/04/21 01:48:04;;;;;;;27.77;12.55;;;10.10;93.00;;;;;;5114579;28;20024;-75
2023/04/21 01:50:29;;;;;;;26.63;12.30;;;10.20;93.20;;;;;;5114596;28;20035;-75
2023/04/21 01:52:55;;;;;;;27.42;13.32;;;10.20;93.20;;;;;;5114602;28;20023;-75
2023/04/21 01:55:22;;;;;;;24.77;12.68;;;10.20;93.40;;;;;;5114539;28;20028;-75
2023/04/21 01:57:48;;;;;;;27.17;12.70;;;10.10;93.30;;;;;;5113343;28;20073;-75
2023/04/21 02:00:14;;;;;;;27.02;13.00;;;10.10;93.30;;;;;;5113441;28;20052;-75
2023/04/21 02:02:40;;;;;;;27.70;12.68;;;10.10;93.40;;;;;;5114435;28;20084;-75
2023/04/21 02:05:06;;;;;;;29.13;13.35;;;10.20;93.60;;;;;;5114260;28;20370;-75
2023/04/21 02:07:31;;;;;;;27.92;12.95;;;10.10;93.50;;;;;;5114390;28;20049;-74
2023/04/21 02:09:57;;;;;;;27.60;12.73;;;10.10;93.50;;;;;;5114350;28;20488;-75
2023/04/21 02:12:23;;;;;;;30.17;13.73;;;10.10;93.40;;;;;;5113166;28;20043;-75
2023/04/21 02:14:48;;;;;;;30.08;12.90;;;10.20;93.50;;;;;;5114107;28;20080;-75
2023/04/21 02:17:14;;;;;;;29.05;13.80;;;10.20;93.40;;;;;;5114259;28;20139;-74
2023/04/21 02:19:40;;;;;;;28.77;13.15;;;10.20;93.50;;;;;;5114077;28;20057;-75
2023/04/21 02:22:07;;;;;;;28.65;13.20;;;10.20;93.40;;;;;;5114073;28;20055;-74
2023/04/21 02:24:33;;;;;;;31.23;13.23;;;10.20;93.70;;;;;;5114003;28;20024;-75
2023/04/21 02:26:59;;;;;;;32.03;13.68;;;10.10;93.70;;;;;;5114030;28;20024;-74
2023/04/21 02:29:24;;;;;;;29.23;13.30;;;10.10;93.80;;;;;;5112902;28;20035;-75
2023/04/21 02:31:50;;;;;;;32.28;13.93;;;10.10;93.70;;;;;;5113034;28;20036;-74
2023/04/21 02:34:16;;;;;;;33.85;14.48;;;10.10;93.80;;;;;;5113732;28;20030;-75
2023/04/21 02:36:41;;;;;;;30.02;13.63;;;10.10;94.00;;;;;;5113842;28;20024;-75
2023/04/21 02:39:07;;;;;;;29.38;13.77;;;10.10;94.00;;;;;;5113711;28;20036;-74
2023/04/21 02:41:33;;;;;;;30.38;14.85;;;10.10;94.00;;;;;;5113741;28;20039;-74
2023/04/21 02:43:58;;;;;;;29.55;13.52;;;10.00;94.00;;;;;;5113678;28;20032;-75
2023/04/21 02:46:24;;;;;;;31.60;14.27;;;10.00;94.00;;;;;;5112723;28;20054;-75
2023/04/21 02:48:49;;;;;;;32.40;14.15;;;10.00;94.00;;;;;;5113652;28;20032;-75
2023/04/21 02:51:15;;;;;;;35.45;14.55;;;10.00;94.00;;;;;;5112891;28;20020;-74
2023/04/21 02:53:41;;;;;;;34.42;14.32;;;10.00;94.20;;;;;;5113569;28;20103;-75
2023/04/21 02:56:07;;;;;;;30.15;13.38;;;10.00;94.30;;;;;;5113334;28;20031;-75
2023/04/21 02:58:35;;;;;;;34.90;15.10;;;10.00;94.30;;;;;;5112494;28;20096;-75
2023/04/21 03:01:02;;;;;;;32.15;13.85;;;10.00;94.20;;;;;;5113475;28;20047;-75
2023/04/21 03:03:28;;;;;;;32.58;14.52;;;10.00;94.30;;;;;;5113657;28;20016;-75
2023/04/21 03:06:02;;;;;;;30.52;14.35;;;10.00;94.30;;;;;;5113380;28;20021;-74
2023/04/21 03:08:29;;;;;;;36.55;16.25;;;10.10;94.30;;;;;;5113513;28;20048;-75
2023/04/21 03:10:55;;;;;;;35.85;14.88;;;10.10;94.80;;;;;;5113381;28;20016;-75
2023/04/21 03:13:22;;;;;;;31.83;13.43;;;10.10;94.30;;;;;;5112545;28;20056;-75
2023/04/21 03:15:48;;;;;;;34.03;15.15;;;10.00;94.20;;;;;;5113374;28;20025;-75
2023/04/21 03:18:13;;;;;;;35.42;15.57;;;10.00;94.40;;;;;;5112388;28;20028;-75
2023/04/21 03:20:39;;;;;;;32.65;15.25;;;10.00;94.50;;;;;;5113297;28;20035;-75
2023/04/21 03:23:05;;;;;;;31.15;13.75;;;10.00;94.50;;;;;;5113300;28;20080;-74
2023/04/21 03:25:30;;;;;;;31.05;15.02;;;10.00;94.60;;;;;;5113166;28;20028;-74
2023/04/21 03:27:56;;;;;;;31.23;14.18;;;9.90;94.60;;;;;;5113339;28;20035;-74
2023/04/21 03:30:25;;;;;;;33.83;14.95;;;9.90;94.60;;;;;;5112248;28;20029;-74
2023/04/21 03:32:51;;;;;;;32.22;15.10;;;10.00;94.70;;;;;;5113277;28;20026;-75
2023/04/21 03:35:17;;;;;;;35.38;14.90;;;10.00;94.60;;;;;;5113074;28;20024;-75
2023/04/21 03:37:43;;;;;;;34.03;14.18;;;9.90;94.70;;;;;;5113147;28;20020;-74
2023/04/21 03:40:10;;;;;;;35.75;16.08;;;9.90;94.60;;;;;;5113100;28;20535;-75
2023/04/21 03:42:36;;;;;;;33.65;15.43;;;9.90;94.70;;;;;;5113139;28;20047;-75
2023/04/21 03:45:06;;;;;;;36.55;15.82;;;9.80;94.70;;;;;;5113214;28;20027;-75
2023/04/21 03:47:32;;;;;;;36.03;15.43;;;9.80;94.70;;;;;;5112014;28;20059;-75
2023/04/21 03:49:57;;;;;;;37.53;15.00;;;9.80;94.70;;;;;;5113019;28;20027;-74
2023/04/21 03:52:23;;;;;;;34.72;14.68;;;9.80;94.70;;;;;;5112137;28;20112;-74
2023/04/21 03:54:49;;;;;;;33.22;15.05;;;9.80;94.80;;;;;;5112071;28;20021;-75
2023/04/21 03:57:15;;;;;;;43.63;16.42;;;9.70;94.90;;;;;;5112267;28;20063;-74
2023/04/21 03:59:41;;;;;;;35.78;16.10;;;9.70;95.00;;;;;;5116736;28;20035;-75
2023/04/21 04:02:07;;;;;;;37.15;15.30;;;9.70;95.00;;;;;;5116715;28;20024;-75
2023/04/21 04:04:33;;;;;;;33.42;14.98;;;9.70;94.90;;;;;;5116629;28;20028;-74
2023/04/21 04:06:59;;;;;;;34.00;14.93;;;9.70;94.90;;;;;;5115646;28;20025;-74
2023/04/21 04:09:24;;;;;;;38.42;16.77;;;9.60;95.00;;;;;;5116584;28;20048;-74
2023/04/21 04:11:50;;;;;;;39.92;16.23;;;9.60;95.00;;;;;;5115729;28;20043;-75
2023/04/21 04:14:16;;;;;;;38.55;16.67;;;9.60;94.90;;;;;;5116446;28;20028;-74
2023/04/21 04:16:42;;;;;;;36.25;16.23;;;9.60;95.10;;;;;;5116623;28;20039;-75
2023/04/21 04:19:08;;;;;;;34.22;15.43;;;9.60;95.00;;;;;;5116360;28;20028;-74
2023/04/21 04:21:33;;;;;;;35.85;16.45;;;9.60;95.00;;;;;;5116378;28;20035;-75
2023/04/21 04:24:01;;;;;;;35.75;15.38;;;9.60;95.10;;;;;;5116244;28;20032;-75
2023/04/21 04:26:27;;;;;;;33.88;15.63;;;9.60;95.10;;;;;;5116235;28;20044;-75
2023/04/21 04:28:55;;;;;;;39.00;17.75;;;9.50;95.00;;;;;;5116153;28;20023;-75
2023/04/21 04:31:21;;;;;;;37.90;16.17;;;9.60;95.10;;;;;;5116191;28;20031;-75
2023/04/21 04:33:47;;;;;;;38.10;17.65;;;9.60;95.10;;;;;;5116085;28;20031;-75
2023/04/21 04:36:12;;;;;;;41.42;17.48;;;9.50;95.20;;;;;;5116061;28;20028;-75
2023/04/21 04:38:39;;;;;;;42.13;16.75;;;9.60;95.10;;;;;;5116015;28;20020;-75
2023/04/21 04:41:05;;;;;;;42.80;18.88;;;9.60;95.30;;;;;;5115938;28;20028;-74
2023/04/21 04:43:35;;;;;;;39.88;17.83;;;9.60;95.40;;;;;;5114968;28;20024;-75
2023/04/21 04:46:02;;;;;;;43.10;17.92;;;9.50;95.30;;;;;;5115965;28;20027;-75
2023/04/21 04:48:27;;;;;;;42.10;17.33;;;9.50;95.30;;;;;;5115893;28;20044;-75
2023/04/21 04:50:53;;;;;;;41.08;17.33;;;9.50;95.40;;;;;;5114644;28;20039;-74
2023/04/21 04:53:19;;;;;;;38.75;16.42;;;9.50;95.50;;;;;;5115740;28;20043;-75
2023/04/21 04:55:46;;;;;;;39.00;16.77;;;9.60;95.50;;;;;;5114659;28;20476;-75
2023/04/21 04:58:11;;;;;;;40.25;16.70;;;9.60;95.50;;;;;;5114499;28;20054;-75
2023/04/21 05:00:37;;;;;;;39.67;17.85;;;9.60;95.40;;;;;;5114639;28;20036;-75
2023/04/21 05:03:03;;;;;;;37.08;16.15;;;9.60;95.50;;;;;;5114645;28;20054;-75
2023/04/21 05:05:29;;;;;;;40.13;16.73;;;9.60;95.50;;;;;;5115487;28;20031;-75
2023/04/21 05:07:56;;;;;;;37.88;17.60;;;9.70;95.50;;;;;;5115442;28;20028;-75
2023/04/21 05:10:22;;;;;;;40.25;18.02;;;9.70;95.50;;;;;;5114468;28;20044;-75
2023/04/21 05:12:48;;;;;;;34.70;16.58;;;9.60;95.70;;;;;;5115410;28;20042;-75
2023/04/21 05:15:14;;;;;;;39.80;16.88;;;9.60;95.60;;;;;;5115318;28;20046;-75
2023/04/21 05:17:39;;;;;;;36.03;16.30;;;9.60;95.60;;;;;;5115312;28;20032;-75
2023/04/21 05:20:06;;;;;;;39.08;16.65;;;9.60;95.50;;;;;;5114201;28;20032;-75
2023/04/21 05:22:37;;;;;;;40.30;16.73;;;9.60;95.40;;;;;;5115219;28;20083;-75
2023/04/21 05:25:03;;;;;;;42.85;16.50;;;9.60;95.40;;;;;;5115177;28;20028;-75
2023/04/21 05:27:29;;;;;;;36.60;15.25;;;9.60;95.50;;;;;;5113982;28;20040;-75
2023/04/21 05:29:54;;;;;;;39.78;16.80;;;9.60;95.40;;;;;;5114977;28;20024;-75
2023/04/21 05:32:20;;;;;;;38.47;16.65;;;9.60;95.50;;;;;;5114955;28;20055;-75
2023/04/21 05:34:46;;;;;;;42.97;17.58;;;9.70;95.60;;;;;;5114830;28;20024;-75
2023/04/21 05:37:11;;;;;;;38.30;16.17;;;9.70;95.60;;;;;;5114841;28;20032;-75
2023/04/21 05:39:37;;;;;;;38.70;17.85;;;9.70;95.50;;;;;;5114821;28;20028;-75
2023/04/21 05:42:03;;;;;;;39.47;17.90;;;9.60;95.70;;;;;;5114743;28;20087;-75
2023/04/21 05:44:29;;;;;;;42.00;17.52;;;9.60;95.60;;;;;;5113862;28;20036;-75
2023/04/21 05:46:54;;;;;;;39.03;17.00;;;9.70;95.80;;;;;;5114792;28;20051;-75
2023/04/21 05:49:20;;;;;;;41.65;18.30;;;9.70;95.80;;;;;;5113851;28;20071;-74
2023/04/21 05:51:45;;;;;;;38.33;16.63;;;9.70;95.90;;;;;;5114557;28;20055;-74
2023/04/21 05:54:11;;;;;;;41.80;18.27;;;9.70;95.90;;;;;;5114595;28;20027;-75
2023/04/21 05:56:37;;;;;;;40.88;16.83;;;9.70;95.80;;;;;;5113496;28;20071;-75
2023/04/21 05:59:02;;;;;;;43.58;18.30;;;9.80;95.80;;;;;;5114505;28;20036;-75
2023/04/21 06:01:28;;;;;;;42.60;17.83;;;9.90;95.90;;;;;;5114485;28;20035;-75
2023/04/21 06:03:54;;;;;;;44.40;18.80;;;9.90;96.40;;;;;;5113345;28;20507;-75
2023/04/21 06:06:19;;;;;;;41.03;17.85;;;9.90;96.10;;;;;;5114266;28;20092;-75
2023/04/21 06:08:45;;;;;;;47.28;19.70;;;10.00;96.00;;;;;;5114304;28;20024;-75
2023/04/21 06:11:11;;;;;;;44.58;19.20;;;10.00;96.40;;;;;;5114279;28;20020;-74
2023/04/21 06:13:36;;;;;;;39.53;19.23;;;10.00;96.40;;;;;;5114213;28;20024;-74
2023/04/21 06:16:03;;;;;;;42.08;19.02;;;10.00;96.40;;;;;;5114151;28;20032;-74
2023/04/21 06:18:28;;;;;;;42.97;18.20;;;10.10;96.70;;;;;;5114141;28;20028;-74
2023/04/21 06:20:54;;;;;;;46.42;18.40;;;10.10;96.50;;;;;;5113152;28;20102;-75
2023/04/21 06:23:21;;;;;;;47.55;19.88;;;10.10;96.60;;;;;;5114084;28;20029;-74
2023/04/21 06:25:57;;;;;;;43.45;18.73;;;10.10;96.60;;;;;;5114030;28;20047;-74
2023/04/21 06:28:22;;;;;;;41.17;17.02;;;10.20;96.60;;;;;;5114043;28;20031;-74
2023/04/21 06:30:48;;;;;;;44.22;18.52;;;10.20;96.70;;;;;;5113909;28;20032;-75
2023/04/21 06:33:13;;;;;;;42.50;17.98;;;10.20;96.80;;;;;;5113809;28;20063;-75
2023/04/21 06:35:39;;;;;;;45.90;19.50;;;10.20;96.90;;;;;;5112968;28;20028;-74
2023/04/21 06:38:07;;;;;;;42.85;19.20;;;10.20;97.10;;;;;;5112861;28;20020;-75
2023/04/21 06:40:33;;;;;;;44.85;18.88;;;10.30;97.40;;;;;;5113793;28;20034;-75
2023/04/21 06:42:59;;;;;;;49.10;20.65;;;10.40;97.30;;;;;;5113743;28;20088;-75
2023/04/21 06:45:24;;;;;;;44.40;19.02;;;10.40;97.50;;;;;;5112864;28;20039;-75
2023/04/21 06:47:50;;;;;;;48.03;20.77;;;10.50;97.50;;;;;;5113599;28;20032;-75
2023/04/21 06:50:16;;;;;;;41.53;19.60;;;10.50;97.50;;;;;;5113644;28;20024;-74
2023/04/21 06:52:41;;;;;;;48.72;20.20;;;10.60;97.40;;;;;;5113659;28;20036;-74
2023/04/21 06:55:07;;;;;;;44.25;18.45;;;10.60;97.30;;;;;;5113693;28;20517;-74
2023/04/21 06:57:33;;;;;;;41.00;19.25;;;10.60;97.30;;;;;;5113369;28;20063;-75
2023/04/21 06:59:58;;;;;;;43.90;19.15;;;10.70;97.30;;;;;;5113560;28;20050;-74
2023/04/21 07:02:24;;;;;;;40.50;17.40;;;10.60;97.10;;;;;;5113500;28;20032;-74
2023/04/21 07:04:50;;;;;;;44.08;20.55;;;10.70;97.30;;;;;;5113487;28;20076;-75
2023/04/21 07:07:15;;;;;;;37.65;16.95;;;10.70;97.40;;;;;;5113383;28;20036;-74
2023/04/21 07:09:46;;;;;;;40.92;17.00;;;10.80;97.10;;;;;;5112591;28;20027;-75
2023/04/21 07:12:11;;;;;;;43.53;19.77;;;10.80;96.80;;;;;;5112534;28;20021;-75
2023/04/21 07:14:37;;;;;;;41.47;18.45;;;10.90;96.70;;;;;;5113401;28;20035;-75
2023/04/21 07:17:02;;;;;;;43.47;17.42;;;10.90;96.70;;;;;;5113324;28;20040;-74
2023/04/21 07:19:28;;;;;;;34.40;15.45;;;10.90;97.00;;;;;;5112357;28;20040;-75
2023/04/21 07:21:54;;;;;;;37.05;17.92;;;10.90;97.00;;;;;;5113319;28;20040;-75
2023/04/21 07:24:19;;;;;;;38.78;18.50;;;10.90;96.80;;;;;;5113284;28;20039;-75
2023/04/21 07:26:45;;;;;;;33.72;14.32;;;11.00;96.50;;;;;;5113211;28;20036;-75
2023/04/21 07:29:10;;;;;;;37.55;17.73;;;11.00;96.70;;;;;;5112344;28;20050;-75
2023/04/21 07:31:36;;;;;;;32.35;15.93;;;11.10;96.60;;;;;;5113223;28;20032;-75
2023/04/21 07:34:02;;;;;;;41.55;17.55;;;11.00;96.30;;;;;;5116605;28;20079;-75
2023/04/21 07:36:27;;;;;;;36.58;17.13;;;11.10;95.90;;;;;;5117230;28;20036;-74
2023/04/21 07:38:53;;;;;;;38.42;17.38;;;11.10;95.90;;;;;;5117190;28;20055;-74
2023/04/21 07:41:18;;;;;;;36.78;18.35;;;11.20;96.20;;;;;;5117175;28;20492;-75
2023/04/21 07:43:44;;;;;;;32.20;14.95;;;11.30;95.80;;;;;;5117103;28;20038;-75
2023/04/21 07:46:12;;;;;;;34.72;15.88;;;11.30;95.60;;;;;;5116987;28;20119;-75
2023/04/21 07:48:38;;;;;;;36.25;17.02;;;11.40;96.10;;;;;;5117030;28;20026;-74
2023/04/21 07:51:04;;;;;;;34.17;14.57;;;11.70;95.80;;;;;;5116966;28;20032;-74
2023/04/21 07:53:30;;;;;;;36.03;15.20;;;11.70;94.70;;;;;;5116956;28;20023;-75
2023/04/21 07:55:56;;;;;;;31.42;15.43;;;11.70;94.70;;;;;;5116886;28;20028;-75
2023/04/21 07:58:21;;;;;;;34.25;16.05;;;11.80;95.10;;;;;;5115652;28;20117;-74
2023/04/21 08:00:47;;;;;;;33.78;14.88;;;11.80;94.90;;;;;;5116801;28;20474;-75
2023/04/21 08:03:13;;;;;;;28.20;13.57;;;11.80;94.50;;;;;;5116766;28;20024;-74
2023/04/21 08:05:40;;;;;;;32.15;14.65;;;11.90;94.30;;;;;;5116672;28;20032;-74
2023/04/21 08:08:06;;;;;;;29.50;14.77;;;11.80;94.10;;;;;;5116537;28;20036;-74
2023/04/21 08:10:32;;;;;;;29.48;14.32;;;11.80;94.60;;;;;;5116647;28;20021;-74
2023/04/21 08:12:57;;;;;;;28.13;13.60;;;11.90;94.50;;;;;;5116571;28;20027;-75
2023/04/21 08:15:23;;;;;;;27.70;13.73;;;12.00;94.90;;;;;;5116519;28;20031;-74
2023/04/21 08:17:49;;;;;;;30.45;15.07;;;12.10;94.00;;;;;;5116467;28;20397;-74
2023/04/21 08:20:15;;;;;;;29.73;14.35;;;12.10;93.80;;;;;;5116566;28;20028;-75
2023/04/21 08:22:40;;;;;;;27.75;13.50;;;12.10;93.60;;;;;;5116426;28;20064;-75
2023/04/21 08:25:07;;;;;;;27.98;14.05;;;12.20;93.80;;;;;;5116304;28;20028;-75
2023/04/21 08:27:32;;;;;;;29.02;13.18;;;12.20;93.50;;;;;;5116246;28;20065;-74
2023/04/21 08:29:59;;;;;;;28.42;13.55;;;12.20;93.40;;;;;;5115283;28;20024;-75
2023/04/21 08:32:25;;;;;;;28.13;14.90;;;12.20;93.60;;;;;;5116240;28;20020;-75
2023/04/21 08:34:52;;;;;;;29.08;13.30;;;12.30;93.00;;;;;;5116124;28;20489;-72
2023/04/21 08:37:18;;;;;;;29.13;14.77;;;12.20;92.80;;;;;;5116134;28;20024;-72
2023/04/21 08:39:44;;;;;;;29.88;14.38;;;12.30;93.30;;;;;;5116099;28;20028;-72
2023/04/21 08:42:15;;;;;;;31.25;15.30;;;12.30;93.50;;;;;;5116072;28;20044;-72
2023/04/21 08:44:42;;;;;;;31.42;14.57;;;12.40;93.60;;;;;;5114641;28;20024;-72
2023/04/21 08:47:11;;;;;;;28.80;14.57;;;12.50;93.70;;;;;;5115859;28;20028;-72
2023/04/21 08:49:39;;;;;;;29.83;14.90;;;12.60;93.80;;;;;;5114853;28;20012;-72
2023/04/21 08:52:05;;;;;;;27.00;14.95;;;12.70;93.10;;;;;;5115696;28;20107;-72
2023/04/21 08:54:31;;;;;;;28.58;14.23;;;12.80;93.00;;;;;;5115816;28;20016;-72
2023/04/21 08:56:57;;;;;;;30.60;14.45;;;12.90;93.00;;;;;;5114511;28;20048;-72
2023/04/21 08:59:23;;;;;;;26.80;13.85;;;12.90;92.30;;;;;;5114681;28;20040;-72
2023/04/21 09:02:08;;;;;;;29.17;14.18;;;13.00;92.10;;;;;;5115653;28;20033;-72
2023/04/21 09:04:36;;;;;;;30.88;14.30;;;13.00;92.40;;;;;;5114662;28;20083;-72
2023/04/21 09:07:02;;;;;;;25.23;14.02;;;13.10;92.20;;;;;;5114642;28;20020;-72
2023/04/21 09:09:28;;;;;;;28.25;13.88;;;13.20;91.40;;;;;;5115466;28;20485;-72
2023/04/21 09:11:58;;;;;;;27.30;14.27;;;13.30;91.40;;;;;;5115275;28;20028;-72
2023/04/21 09:14:33;;;;;;;27.90;15.50;;;13.30;91.40;;;;;;5115636;28;20023;-72
2023/04/21 09:17:02;;;;;;;28.17;13.60;;;13.40;91.00;;;;;;5115362;28;20028;-72
2023/04/21 09:19:33;;;;;;;26.50;14.57;;;13.30;91.20;;;;;;5114430;28;20064;-72
2023/04/21 09:22:00;;;;;;;25.45;12.48;;;13.40;91.70;;;;;;5114331;28;20050;-72
2023/04/21 09:24:26;;;;;;;27.45;14.40;;;13.40;91.10;;;;;;5115184;28;20047;-72
2023/04/21 09:26:52;;;;;;;25.75;13.82;;;13.40;90.60;;;;;;5097129;28;20035;-72
2023/04/21 09:29:22;;;;;;;26.95;15.23;;;13.30;90.90;;;;;;5115077;28;20028;-72
2023/04/21 09:31:50;;;;;;;25.50;13.95;;;13.30;91.20;;;;;;5115256;28;20042;-72
2023/04/21 09:34:19;;;;;;;29.80;14.30;;;13.40;91.50;;;;;;5113877;28;20016;-73
2023/04/21 09:36:46;;;;;;;28.17;13.80;;;13.40;91.70;;;;;;5113992;28;20075;-72
2023/04/21 09:39:12;;;;;;;24.75;13.80;;;13.40;91.60;;;;;;5114913;28;20035;-72
2023/04/21 09:41:37;;;;;;;28.45;14.88;;;13.50;92.00;;;;;;5113825;28;20028;-72
2023/04/21 09:44:03;;;;;;;26.67;14.77;;;13.60;91.80;;;;;;5114841;28;20028;-72
2023/04/21 09:46:34;;;;;;;27.08;14.32;;;13.50;90.90;;;;;;5114672;28;20032;-72
2023/04/21 09:49:00;;;;;;;27.17;14.27;;;13.50;91.30;;;;;;5114774;28;20016;-72
2023/04/21 09:51:26;;;;;;;27.35;14.27;;;13.50;91.40;;;;;;5114823;28;20016;-73
2023/04/21 09:53:58;;;;;;;29.10;14.48;;;13.50;91.10;;;;;;5114756;28;20020;-72
2023/04/21 09:56:28;;;;;;;28.48;14.80;;;13.50;91.10;;;;;;5112919;28;20127;-73
2023/04/21 09:58:57;;;;;;;27.10;15.55;;;13.50;90.60;;;;;;5114566;28;20513;-73
2023/04/21 10:01:26;;;;;;;28.27;15.25;;;13.60;90.50;;;;;;5113527;28;20160;-72
2023/04/21 10:03:52;;;;;;;30.85;16.17;;;13.60;90.30;;;;;;5113445;28;20028;-72
2023/04/21 10:06:18;;;;;;;29.48;16.23;;;13.50;90.40;;;;;;5114298;28;20028;-72
2023/04/21 10:08:44;;;;;;;31.92;18.33;;;13.50;90.80;;;;;;5113344;28;20042;-72
2023/04/21 10:11:11;;;;;;;34.65;18.85;;;13.60;91.60;;;;;;5114302;28;20390;-73
2023/04/21 10:13:38;;;;;;;31.08;17.08;;;13.80;92.00;;;;;;5113230;28;20069;-72
2023/04/21 10:16:10;;;;;;;37.05;18.65;;;14.00;91.70;;;;;;5113228;28;20092;-72
2023/04/21 10:18:37;;;;;;;;;;;14.00;91.30;;;;;;5114652;28;20024;-73
2023/04/21 10:21:09;;;;;;;34.30;16.77;;;14.00;91.40;;;;;;5113201;28;19908;-73
2023/04/21 10:23:35;;;;;;;32.17;16.90;;;14.10;91.80;;;;;;5114159;28;20041;-72
2023/04/21 10:26:01;;;;;;;31.52;17.10;;;14.20;91.60;;;;;;5114026;28;20043;-72
2023/04/21 10:28:59;;;;;;;30.73;16.52;;;14.30;91.50;;;;;;5113092;28;20036;-72
2023/04/21 10:31:28;;;;;;;27.33;14.93;;;14.40;90.80;;;;;;5114005;28;20024;-73
2023/04/21 10:34:09;;;;;;;27.42;15.57;;;14.30;90.00;;;;;;5113887;28;20028;-72
2023/04/21 10:36:44;;;;;;;32.53;18.23;;;14.40;90.20;;;;;;5113998;28;20016;-74
2023/04/21 10:39:30;;;;;;;30.27;15.25;;;14.50;90.20;;;;;;5113814;28;20024;-75
2023/04/21 10:42:19;;;;;;;28.42;15.85;;;14.60;90.10;;;;;;5113854;28;20016;-73
2023/04/21 10:44:57;;;;;;;25.05;15.65;;;14.80;90.60;;;;;;5100824;28;20099;-72
2023/04/21 10:47:36;;;;;;;29.25;17.08;;;14.90;90.00;;;;;;5113611;28;20035;-73
2023/04/21 10:50:20;;;;;;;30.85;17.50;;;14.90;90.60;;;;;;5113742;28;20050;-73
2023/04/21 10:52:53;;;;;;;30.08;16.98;;;15.10;90.20;;;;;;5113787;28;20016;-72
2023/04/21 10:55:20;;;;;;;31.15;16.52;;;15.10;88.50;;;;;;5113699;28;20048;-73
2023/04/21 10:57:47;;;;;;;37.20;18.75;;;15.00;87.70;;;;;;5112347;28;20063;-72
2023/04/21 11:00:18;;;;;;;32.90;18.85;;;15.00;87.70;;;;;;5113567;28;20020;-73
2023/04/21 11:02:56;;;;;;;31.08;18.75;;;15.00;88.60;;;;;;5113546;28;20035;-73
2023/04/21 11:05:39;;;;;;;34.72;18.65;;;15.00;85.50;;;;;;5113570;28;20034;-72
2023/04/21 11:08:13;;;;;;;34.40;18.50;;;14.90;88.10;;;;;;5112625;28;20027;-72
2023/04/21 11:10:47;;;;;;;34.53;18.08;;;14.90;87.80;;;;;;5113532;28;20020;-73
2023/04/21 11:13:12;;;;;;;33.75;18.42;;;15.00;88.80;;;;;;5113574;28;20088;-72
2023/04/21 11:15:38;;;;;;;31.42;19.83;;;15.10;88.10;;;;;;5112520;28;20042;-73
2023/04/21 11:18:06;;;;;;;31.83;17.80;;;15.30;85.90;;;;;;5113366;28;20036;-73
2023/04/21 11:20:31;;;;;;;33.75;18.42;;;15.40;85.40;;;;;;5113404;28;20023;-73
2023/04/21 11:22:57;;;;;;;35.22;19.88;;;15.50;88.40;;;;;;5112377;28;20024;-72
2023/04/21 11:25:23;;;;;;;35.03;21.70;;;15.60;86.20;;;;;;5095488;28;20040;-72
2023/04/21 11:27:55;;;;;;;32.70;18.48;;;15.70;85.40;;;;;;5113171;28;20028;-72
2023/04/21 11:30:32;;;;;;;34.00;19.40;;;15.70;84.00;;;;;;5112336;28;20046;-73
2023/04/21 11:32:58;;;;;;;35.17;19.52;;;15.80;84.70;;;;;;5113316;28;20042;-73
2023/04/21 11:35:24;;;;;;;37.42;20.98;;;15.90;86.30;;;;;;5113176;28;20028;-72
2023/04/21 11:37:52;;;;;;;32.10;19.58;;;16.00;86.80;;;;;;5113199;28;20039;-73
2023/04/21 11:40:18;;;;;;;33.58;20.50;;;16.10;86.30;;;;;;5112237;28;20035;-73
2023/04/21 11:42:45;;;;;;;35.47;19.65;;;16.10;85.20;;;;;;5113165;28;20060;-72
2023/04/21 11:45:19;;;;;;;31.45;17.75;;;16.20;86.40;;;;;;5113128;28;20028;-72
2023/04/21 11:47:46;;;;;;;35.63;21.85;;;16.30;82.70;;;;;;5112226;28;20035;-72
2023/04/21 11:50:30;;;;;;;32.70;19.00;;;16.30;83.40;;;;;;5112171;28;20043;-72
2023/04/21 11:52:55;;;;;;;33.53;20.35;;;16.50;85.50;;;;;;5113126;28;20012;-72
2023/04/21 11:55:21;;;;;;;34.10;20.35;;;16.60;82.50;;;;;;5113048;28;20035;-72
2023/04/21 11:57:50;;;;;;;32.78;20.65;;;16.60;84.90;;;;;;5111875;28;20060;-72
2023/04/21 12:00:16;;;;;;;34.92;19.50;;;16.80;85.30;;;;;;5113031;28;20030;-72
2023/04/21 12:02:42;;;;;;;33.65;21.77;;;16.80;85.50;;;;;;5112018;28;20036;-72
2023/04/21 12:05:12;;;;;;;33.15;20.17;;;17.00;83.70;;;;;;5112947;28;20078;-72
2023/04/21 12:07:42;;;;;;;34.10;19.90;;;17.00;81.30;;;;;;5112841;28;20073;-72
2023/04/21 12:10:14;;;;;;;32.97;19.67;;;16.90;81.30;;;;;;5112930;28;20020;-72
2023/04/21 12:12:41;;;;;;;29.95;19.20;;;16.80;81.40;;;;;;5112970;28;20024;-72
2023/04/21 12:15:08;;;;;;;35.55;20.35;;;16.80;81.80;;;;;;5112861;28;20040;-72
2023/04/21 12:17:43;;;;;;;34.45;19.92;;;16.70;82.10;;;;;;5112819;28;20048;-72
2023/04/21 12:20:09;;;;;;;32.92;20.33;;;16.60;81.90;;;;;;5116296;28;20031;-72
2023/04/21 12:22:35;;;;;;;32.65;18.70;;;16.60;82.40;;;;;;5115425;28;20020;-72
2023/04/21 12:25:01;;;;;;;36.00;20.10;;;16.60;82.60;;;;;;5116329;28;20043;-73
2023/04/21 12:27:27;;;;;;;32.17;18.20;;;16.60;83.90;;;;;;5116189;28;20023;-73